St Lucie County International Airport
KFPR : now visible

Airfield :











YOU CAN JOIN US ON...

 
LOGIN :

Register | Disclaimer

   EN    FR    IT 

 









Legend :    VFR   Marginal VFR   IFR   Intensive IFR   Very Intensive IFR
Visi :
Ceiling :
>= 8 km
>= 3000ft
5 to 8 km
1000 to 3000 ft
1500m to 5 km
500 to 1000 ft
800 to 1500m
200 to 500 ft
< 800m
< 200 ft
Symbols :   Thunderstorms  Fog  Heavy snow  Heavy precipitations  Wind > 20 kt






- Airport Elevation : 24 ft
- IATA code : FPR


KFPR - St Lucie County International

CURRENT METAR :
  • 080753Z AUTO 28003KT 10SM FEW034 BKN048 17/15 A3013 RMK AO2 SLP201 T01720150

EXPIRED METARs :
  • 080653Z AUTO 00000KT 10SM FEW033 SCT050 BKN065 17/14 A3013 RMK AO2 SLP201 T01720144
  • 080553Z AUTO 31003KT 10SM FEW034 OVC110 17/14 A3014 RMK AO2 SLP204 T01720144 10194 20150 58009

TAF KFPR
Valid from the 08 at 06:00 until the 09 at 06:00 UTC


080540Z 0806/0906 VRB03KT P6SM VCSH SCT030 BKN100
FM081500 09009KT P6SM SCT035 SCT090
FM090000 10004KT P6SM FEW040 FEW090



MET'MAP, your aeronautical weather chart ! - Copyright ORBIFLY December 2007 - Disclaimer

ORBIFLY MET'MAP TEAM :

Programming & Development : Alexandra Zaïnal
Concept & original design : Baudouin d'Aumeries
Assistance for programming : Marc-Olivier Méhu
Technical & hardware support : Manuel Goepfert

Contact : metmap@orbifly.com




SOURCES & CREDITS :

   NOAA       Earth
Advisory